createdAt,value
2023-03-07T00:01:26.824Z,94046.06
2023-03-07T00:03:55.585Z,94036.09
2023-03-07T00:06:24.317Z,94039.28
2023-03-07T00:08:52.884Z,94038.53
2023-03-07T00:11:21.661Z,94041.63
2023-03-07T00:13:50.155Z,94028.81
2023-03-07T00:16:21.285Z,94032.44
2023-03-07T00:18:51.411Z,94012.53
2023-03-07T00:21:22.035Z,94021.06
2023-03-07T00:23:53.411Z,94018.84
2023-03-07T00:26:24.695Z,94002.66
2023-03-07T00:28:55.178Z,94002.28
2023-03-07T00:31:24.504Z,93989.34
2023-03-07T00:33:54.313Z,93975.78
2023-03-07T00:36:24.249Z,93986.88
2023-03-07T00:38:53.199Z,93966.25
2023-03-07T00:41:23.586Z,93980.25
2023-03-07T00:43:52.542Z,93978.91
2023-03-07T00:46:22.312Z,93979.16
2023-03-07T00:48:51.261Z,93972.81
2023-03-07T00:51:23.384Z,93967.16
2023-03-07T00:53:52.125Z,93952.13
2023-03-07T00:56:21.821Z,93971.13
2023-03-07T00:58:50.386Z,93986.50
2023-03-07T01:01:22.130Z,93974.91
2023-03-07T01:03:53.838Z,93954.38
2023-03-07T01:06:26.101Z,93955.91
2023-03-07T01:08:54.919Z,93939.81
2023-03-07T01:11:23.406Z,93959.53
2023-03-07T01:13:51.836Z,93951.19
2023-03-07T01:16:23.106Z,93943.81
2023-03-07T01:18:53.443Z,93912.09
2023-03-07T01:21:25.973Z,93960.03
2023-03-07T01:23:54.896Z,93961.13
2023-03-07T01:26:26.577Z,93901.47
2023-03-07T01:28:56.677Z,93958.84
2023-03-07T01:31:25.776Z,93944.00
2023-03-07T01:33:55.847Z,93951.13
2023-03-07T01:36:30.148Z,93936.03
2023-03-07T01:39:01.136Z,93949.97
2023-03-07T01:41:32.468Z,93944.97
2023-03-07T01:44:02.530Z,93944.47
2023-03-07T01:46:53.224Z,93940.78
2023-03-07T01:49:26.234Z,93943.25
2023-03-07T01:52:02.748Z,93925.00
2023-03-07T01:54:33.644Z,93930.75
2023-03-07T01:57:03.707Z,93913.72
2023-03-07T01:59:35.802Z,93921.19
2023-03-07T02:02:08.104Z,93914.81
2023-03-07T02:04:41.170Z,93902.44
2023-03-07T02:07:12.574Z,93907.38
2023-03-07T02:09:42.090Z,93876.94
2023-03-07T02:12:11.693Z,93887.94
2023-03-07T02:14:40.064Z,93870.19
2023-03-07T02:17:08.468Z,93882.06
2023-03-07T02:19:54.993Z,93865.59
2023-03-07T02:22:25.298Z,93799.06
2023-03-07T02:24:57.605Z,93824.78
2023-03-07T02:27:31.156Z,93872.03
2023-03-07T02:29:59.473Z,93857.31
2023-03-07T02:32:27.903Z,93872.63
2023-03-07T02:34:56.228Z,93859.81
2023-03-07T02:37:30.513Z,93857.63
2023-03-07T02:40:02.141Z,93844.16
2023-03-07T02:42:34.887Z,93840.06
2023-03-07T02:45:06.374Z,93849.72
2023-03-07T02:47:34.681Z,93840.09
2023-03-07T02:50:03.099Z,93823.34
2023-03-07T02:52:31.444Z,93822.34
2023-03-07T02:54:59.815Z,93737.25
2023-03-07T02:57:28.251Z,93741.84
2023-03-07T02:59:58.010Z,93820.16
2023-03-07T03:02:26.316Z,93818.22
2023-03-07T03:04:54.658Z,93803.09
2023-03-07T03:07:23.011Z,93808.16
2023-03-07T03:09:51.263Z,93791.50
2023-03-07T03:12:19.733Z,93759.88
2023-03-07T03:14:48.460Z,93787.59
2023-03-07T03:17:18.799Z,93775.56
2023-03-07T03:19:47.100Z,93786.31
2023-03-07T03:22:15.429Z,93771.25
2023-03-07T03:24:44.661Z,93798.84
2023-03-07T03:27:13.318Z,93808.91
2023-03-07T03:29:41.633Z,93797.13
2023-03-07T03:32:10.195Z,93805.22
2023-03-07T03:34:40.098Z,93808.81
2023-03-07T03:37:08.833Z,93792.44
2023-03-07T03:39:37.801Z,93800.63
2023-03-07T03:42:06.359Z,93805.56
2023-03-07T03:44:34.747Z,93786.69
2023-03-07T03:47:04.296Z,93803.53
2023-03-07T03:49:33.275Z,93810.50
2023-03-07T03:52:02.964Z,93816.34
2023-03-07T03:54:31.251Z,93792.63
2023-03-07T03:56:59.597Z,93808.13
2023-03-07T03:59:28.104Z,93789.41
2023-03-07T04:01:56.545Z,93792.53
2023-03-07T04:04:25.801Z,93766.28
2023-03-07T04:06:54.537Z,93790.97
2023-03-07T04:09:24.328Z,93763.75
2023-03-07T04:11:52.782Z,93710.94
2023-03-07T04:14:21.147Z,93794.63
2023-03-07T04:16:49.562Z,93802.63
2023-03-07T04:19:18.213Z,93802.28
2023-03-07T04:21:46.561Z,93797.91
2023-03-07T04:24:14.944Z,93799.44
2023-03-07T04:26:45.039Z,93787.84
2023-03-07T04:29:13.346Z,93790.72
2023-03-07T04:31:41.790Z,93786.19
2023-03-07T04:34:10.542Z,93749.56
2023-03-07T04:36:39.410Z,93804.78
2023-03-07T04:39:07.786Z,93784.91
2023-03-07T04:41:36.054Z,93793.75
2023-03-07T04:44:06.041Z,93791.88
2023-03-07T04:46:34.493Z,93798.09
2023-03-07T04:49:02.850Z,93796.66
2023-03-07T04:51:31.147Z,93781.25
2023-03-07T04:53:59.459Z,93785.81
2023-03-07T04:56:28.055Z,93748.91
2023-03-07T04:58:56.370Z,93785.84
2023-03-07T05:01:26.112Z,93787.22
2023-03-07T05:03:54.596Z,93736.75
2023-03-07T05:06:23.082Z,93790.44
2023-03-07T05:08:51.605Z,93773.19
2023-03-07T05:11:19.945Z,93777.94
2023-03-07T05:13:48.313Z,93788.53
2023-03-07T05:16:17.876Z,93779.00
2023-03-07T05:18:47.627Z,93751.94
2023-03-07T05:21:15.965Z,93776.97
2023-03-07T05:23:44.376Z,93754.41
2023-03-07T05:26:12.975Z,93779.91
2023-03-07T05:28:41.616Z,93779.28
2023-03-07T05:31:10.256Z,93692.72
2023-03-07T05:33:38.599Z,93740.28
2023-03-07T05:36:09.215Z,93768.25
2023-03-07T05:38:37.606Z,93778.66
2023-03-07T05:41:06.073Z,93734.75
2023-03-07T05:43:34.690Z,93777.31
2023-03-07T05:46:03.071Z,93711.44
2023-03-07T05:48:31.440Z,93765.44
2023-03-07T05:51:01.284Z,93766.00
2023-03-07T05:53:31.015Z,93767.63
2023-03-07T05:55:59.307Z,93771.88
2023-03-07T05:58:27.660Z,93764.41
2023-03-07T06:00:56.210Z,93743.19
2023-03-07T06:03:24.598Z,93766.56
2023-03-07T06:05:52.944Z,93763.13
2023-03-07T06:08:21.396Z,93706.00
2023-03-07T06:10:52.979Z,93767.09
2023-03-07T06:13:22.594Z,93764.09
2023-03-07T06:15:52.030Z,93767.56
2023-03-07T06:18:20.837Z,93771.06
2023-03-07T06:20:58.050Z,93778.22
2023-03-07T06:23:26.807Z,93710.94
2023-03-07T06:25:56.764Z,93758.56
2023-03-07T06:28:25.683Z,93779.53
2023-03-07T06:30:54.250Z,93792.00
2023-03-07T06:33:22.823Z,93775.06
2023-03-07T06:35:51.457Z,93784.56
2023-03-07T06:38:19.876Z,93749.00
2023-03-07T06:40:58.178Z,93766.31
2023-03-07T06:43:26.552Z,93773.50
2023-03-07T06:45:55.617Z,93773.50
2023-03-07T06:48:24.384Z,93777.19
2023-03-07T06:50:52.729Z,93756.72
2023-03-07T06:53:21.475Z,93775.06
2023-03-07T06:55:51.024Z,93775.91
2023-03-07T06:58:20.736Z,93769.25
2023-03-07T07:00:49.186Z,93771.94
2023-03-07T07:03:19.999Z,93777.72
2023-03-07T07:05:49.038Z,93742.13
2023-03-07T07:08:17.510Z,93765.84
2023-03-07T07:10:46.086Z,93770.41
2023-03-07T07:13:15.278Z,93786.31
2023-03-07T07:15:45.065Z,93778.63
2023-03-07T07:18:14.722Z,93770.38
2023-03-07T07:20:43.579Z,93780.47
2023-03-07T07:23:11.990Z,93729.50
2023-03-07T07:25:40.804Z,93757.13
2023-03-07T07:28:09.068Z,93738.25
2023-03-07T07:30:37.396Z,93760.06
2023-03-07T07:33:07.321Z,93773.06
2023-03-07T07:35:35.895Z,93735.31
2023-03-07T07:38:04.660Z,93751.03
2023-03-07T07:40:32.976Z,93761.41
2023-03-07T07:43:01.288Z,93763.00
2023-03-07T07:45:29.687Z,93721.56
2023-03-07T07:47:57.969Z,93731.16
2023-03-07T07:50:28.044Z,93756.94
2023-03-07T07:52:56.316Z,93765.41
2023-03-07T07:55:25.667Z,93731.72
2023-03-07T07:57:54.076Z,93742.09
2023-03-07T08:00:23.056Z,93746.56
2023-03-07T08:02:52.432Z,93746.59
2023-03-07T08:05:23.130Z,93724.31
2023-03-07T08:07:52.974Z,93725.38
2023-03-07T08:10:21.904Z,93697.47
2023-03-07T08:12:52.309Z,93726.44
2023-03-07T08:15:22.037Z,93721.91
2023-03-07T08:17:51.572Z,93738.91
2023-03-07T08:20:22.603Z,93731.47
2023-03-07T08:22:53.123Z,93720.59
2023-03-07T08:25:23.895Z,93709.16
2023-03-07T08:27:55.322Z,93737.56
2023-03-07T08:30:24.644Z,93722.69
2023-03-07T08:32:53.520Z,93720.00
2023-03-07T08:35:23.111Z,93728.25
2023-03-07T08:37:55.812Z,93716.81
2023-03-07T08:40:26.248Z,93678.09
2023-03-07T08:42:55.400Z,93708.28
2023-03-07T08:45:24.436Z,93695.06
2023-03-07T08:47:54.843Z,93712.84
2023-03-07T08:50:23.870Z,93722.91
2023-03-07T08:52:53.638Z,93698.19
2023-03-07T08:55:21.981Z,93735.38
2023-03-07T08:57:50.630Z,93715.22
2023-03-07T09:00:19.919Z,93696.09
2023-03-07T09:02:48.195Z,93691.59
2023-03-07T09:05:16.625Z,93676.50
2023-03-07T09:07:44.943Z,93713.09
2023-03-07T09:10:14.784Z,93665.31
2023-03-07T09:12:43.248Z,93696.38
2023-03-07T09:15:12.437Z,93695.84
2023-03-07T09:17:40.875Z,93707.25
2023-03-07T09:20:11.931Z,93700.38
2023-03-07T09:22:40.269Z,93695.28
2023-03-07T09:25:09.171Z,93697.41
2023-03-07T09:27:39.327Z,93696.13
2023-03-07T09:30:09.244Z,93708.81
2023-03-07T09:32:37.919Z,93696.09
2023-03-07T09:35:07.108Z,93698.69
2023-03-07T09:37:35.428Z,93670.56
2023-03-07T09:40:05.460Z,93700.25
2023-03-07T09:42:43.069Z,93702.38
2023-03-07T09:45:30.828Z,93686.75
2023-03-07T09:48:33.932Z,93695.72
2023-03-07T09:51:11.828Z,93692.56
2023-03-07T09:53:44.571Z,93688.56
2023-03-07T09:56:16.750Z,93683.22
2023-03-07T09:58:51.408Z,93679.41
2023-03-07T10:01:25.558Z,93692.13
2023-03-07T10:04:01.289Z,93696.50
2023-03-07T10:06:33.966Z,93653.19
2023-03-07T10:09:05.415Z,93684.72
2023-03-07T10:11:54.471Z,93693.56
2023-03-07T10:14:38.192Z,93685.81
2023-03-07T10:17:16.640Z,93695.66
2023-03-07T10:19:50.706Z,93692.75
2023-03-07T10:22:25.821Z,93640.59
2023-03-07T10:25:08.149Z,93683.16
2023-03-07T10:27:36.443Z,93660.69
2023-03-07T10:30:15.898Z,93682.34
2023-03-07T10:32:47.166Z,93687.69
2023-03-07T10:35:21.116Z,93660.81
2023-03-07T10:37:52.030Z,93637.97
2023-03-07T10:40:26.568Z,93664.06
2023-03-07T10:42:55.908Z,93668.75
2023-03-07T10:45:28.838Z,93670.25
2023-03-07T10:47:57.314Z,93664.69
2023-03-07T10:50:31.242Z,93660.16
2023-03-07T10:53:01.910Z,93675.00
2023-03-07T10:55:36.648Z,93663.75
2023-03-07T10:58:17.150Z,93658.91
2023-03-07T11:00:49.076Z,93655.94
2023-03-07T11:03:49.671Z,93644.63
2023-03-07T11:06:35.916Z,93643.72
2023-03-07T11:09:12.116Z,93645.34
2023-03-07T11:11:40.801Z,93568.03
2023-03-07T11:14:13.293Z,93650.91
2023-03-07T11:16:50.448Z,93640.06
2023-03-07T11:19:38.369Z,93628.31
2023-03-07T11:22:19.619Z,93642.97
2023-03-07T11:24:55.593Z,93598.53
2023-03-07T11:27:26.680Z,93648.00
2023-03-07T11:30:10.162Z,93635.19
2023-03-07T11:32:45.525Z,93633.78
2023-03-07T11:35:20.080Z,93630.22
2023-03-07T11:37:59.288Z,93348.19
2023-03-07T11:40:30.985Z,93633.44
2023-03-07T11:43:13.180Z,93634.81
2023-03-07T11:45:52.201Z,93602.53
2023-03-07T11:48:42.059Z,93623.91
2023-03-07T11:51:28.763Z,93628.41
2023-03-07T11:54:08.113Z,93647.00
2023-03-07T11:56:42.260Z,93633.19
2023-03-07T11:59:24.420Z,93632.56
2023-03-07T12:01:55.908Z,93635.72
2023-03-07T12:04:49.479Z,93637.06
2023-03-07T12:07:32.457Z,93611.97
2023-03-07T12:10:07.068Z,93625.75
2023-03-07T12:12:53.476Z,93633.81
2023-03-07T12:15:37.891Z,93623.72
2023-03-07T12:18:28.983Z,93625.69
2023-03-07T12:21:12.096Z,93583.53
2023-03-07T12:23:45.548Z,93586.25
2023-03-07T12:26:18.767Z,93599.19
2023-03-07T12:28:51.220Z,93599.19
2023-03-07T12:31:25.965Z,93619.34
2023-03-07T12:34:01.205Z,93619.31
2023-03-07T12:36:35.599Z,93626.00
2023-03-07T12:39:16.048Z,93618.78
2023-03-07T12:41:56.097Z,93607.72
2023-03-07T12:44:35.707Z,93629.13
2023-03-07T12:47:12.144Z,93622.16
2023-03-07T12:49:49.991Z,93620.06
2023-03-07T12:52:31.675Z,93609.41
2023-03-07T12:55:06.016Z,93624.53
2023-03-07T12:57:39.006Z,93616.53
2023-03-07T13:00:12.370Z,93617.16
2023-03-07T13:02:46.055Z,93613.44
2023-03-07T13:05:18.390Z,93610.94
2023-03-07T13:07:48.945Z,93611.16
2023-03-07T13:10:21.027Z,93606.19
2023-03-07T13:12:49.901Z,93602.09
2023-03-07T13:15:48.352Z,93606.00
2023-03-07T13:18:28.541Z,93611.31
2023-03-07T13:21:33.903Z,93594.22
2023-03-07T13:24:38.819Z,93612.25
2023-03-07T13:27:16.585Z,93605.44
2023-03-07T13:30:04.114Z,93597.91
2023-03-07T13:33:03.197Z,93591.75
2023-03-07T13:35:57.897Z,93582.47
2023-03-07T13:38:34.309Z,93596.38
2023-03-07T13:41:04.759Z,93588.34
2023-03-07T13:43:49.709Z,93595.25
2023-03-07T13:46:49.334Z,93574.97
2023-03-07T13:49:46.590Z,93539.47
2023-03-07T13:52:31.252Z,93580.00
2023-03-07T13:55:02.245Z,93584.00
2023-03-07T13:57:41.926Z,93591.47
2023-03-07T14:00:25.938Z,93554.44
2023-03-07T14:02:55.016Z,93583.59
2023-03-07T14:05:24.384Z,93583.03
2023-03-07T14:07:53.528Z,93583.28
2023-03-07T14:10:25.658Z,93577.63
2023-03-07T14:13:18.656Z,93573.53
2023-03-07T14:16:00.657Z,93505.53
2023-03-07T14:18:44.732Z,93594.88
2023-03-07T14:21:17.272Z,93587.06
2023-03-07T14:24:03.065Z,93580.50
2023-03-07T14:26:37.152Z,93592.06
2023-03-07T14:29:17.905Z,93582.31
2023-03-07T14:31:47.706Z,93579.22
2023-03-07T14:34:26.621Z,93584.50
2023-03-07T14:36:57.471Z,93584.13
2023-03-07T14:39:31.076Z,93575.06
2023-03-07T14:42:07.296Z,93577.53
2023-03-07T14:44:53.785Z,93556.97
2023-03-07T14:47:37.364Z,93557.28
2023-03-07T14:50:14.648Z,93569.53
2023-03-07T14:52:43.810Z,93522.00
2023-03-07T14:55:20.160Z,93532.94
2023-03-07T14:57:53.076Z,93559.00
2023-03-07T15:00:28.470Z,93567.00
2023-03-07T15:02:58.578Z,93564.66
2023-03-07T15:05:29.011Z,93560.03
2023-03-07T15:07:57.456Z,93559.34
2023-03-07T15:10:30.354Z,93558.44
2023-03-07T15:12:59.404Z,93562.69
2023-03-07T15:15:34.683Z,93565.22
2023-03-07T15:18:08.164Z,93559.34
2023-03-07T15:20:36.695Z,93569.81
2023-03-07T15:23:07.946Z,93566.03
2023-03-07T15:25:39.073Z,93559.81
2023-03-07T15:28:17.099Z,93571.38
2023-03-07T15:30:51.041Z,93522.03
2023-03-07T15:33:26.189Z,93572.72
2023-03-07T15:36:18.407Z,93576.19
2023-03-07T15:38:48.342Z,93562.59
2023-03-07T15:41:31.992Z,93579.25
2023-03-07T15:44:19.923Z,93571.75
2023-03-07T15:46:52.808Z,93569.41
2023-03-07T15:49:26.194Z,93573.50
2023-03-07T15:51:57.402Z,93583.09
2023-03-07T15:54:33.605Z,93567.50
2023-03-07T15:57:04.877Z,93583.41
2023-03-07T15:59:37.017Z,93587.94
2023-03-07T16:02:35.027Z,93583.66
2023-03-07T16:05:05.890Z,93584.97
2023-03-07T16:07:34.522Z,93581.28
2023-03-07T16:10:02.806Z,93583.09
2023-03-07T16:12:31.524Z,93573.06
2023-03-07T16:15:03.481Z,93540.78
2023-03-07T16:17:37.507Z,93577.88
2023-03-07T16:20:14.768Z,93572.91
2023-03-07T16:22:44.428Z,93584.09
2023-03-07T16:25:13.206Z,93590.72
2023-03-07T16:27:42.602Z,93544.69
2023-03-07T16:30:15.856Z,93581.50
2023-03-07T16:32:45.874Z,93586.25
2023-03-07T16:35:17.085Z,93584.81
2023-03-07T16:37:45.600Z,93587.13
2023-03-07T16:40:16.214Z,93580.19
2023-03-07T16:42:45.912Z,93570.19
2023-03-07T16:45:23.384Z,93570.78
2023-03-07T16:47:55.167Z,93572.97
2023-03-07T16:50:25.769Z,93573.53
2023-03-07T16:52:54.173Z,93566.41
2023-03-07T16:55:23.539Z,93586.59
2023-03-07T16:57:55.107Z,93580.19
2023-03-07T17:00:26.059Z,93562.97
2023-03-07T17:02:58.938Z,93585.81
2023-03-07T17:05:29.192Z,93593.84
2023-03-07T17:07:58.742Z,93571.59
2023-03-07T17:10:28.583Z,93590.13
2023-03-07T17:12:58.153Z,93597.50
2023-03-07T17:15:31.282Z,93544.66
2023-03-07T17:18:02.016Z,93588.00
2023-03-07T17:20:30.459Z,93589.63
2023-03-07T17:22:58.849Z,93592.81
2023-03-07T17:25:28.556Z,93588.53
2023-03-07T17:28:01.114Z,93595.69
2023-03-07T17:30:31.116Z,93550.94
2023-03-07T17:33:01.281Z,93589.13
2023-03-07T17:35:30.779Z,93594.16
2023-03-07T17:37:59.346Z,93470.66
2023-03-07T17:40:27.954Z,93596.06
2023-03-07T17:42:57.914Z,93595.56
2023-03-07T17:45:27.232Z,93582.28
2023-03-07T17:47:56.289Z,93561.63
2023-03-07T17:50:26.103Z,93539.91
2023-03-07T17:52:56.172Z,93592.63
2023-03-07T17:55:26.213Z,93592.06
2023-03-07T17:57:54.701Z,93583.28
2023-03-07T18:00:23.988Z,93590.50
2023-03-07T18:02:52.758Z,93590.75
2023-03-07T18:05:21.174Z,93546.28
2023-03-07T18:07:52.741Z,93598.97
2023-03-07T18:10:21.372Z,93533.53
2023-03-07T18:12:53.480Z,93574.25
2023-03-07T18:15:23.253Z,93619.41
2023-03-07T18:17:51.994Z,93543.50
2023-03-07T18:20:22.421Z,93617.03
2023-03-07T18:22:52.288Z,93610.13
2023-03-07T18:25:20.779Z,93554.16
2023-03-07T18:27:50.117Z,93590.22
2023-03-07T18:30:19.120Z,93585.50
2023-03-07T18:32:47.572Z,93600.31
2023-03-07T18:35:16.857Z,93600.31
2023-03-07T18:37:45.636Z,93576.44
2023-03-07T18:40:15.776Z,93610.66
2023-03-07T18:42:44.111Z,93599.75
2023-03-07T18:45:13.297Z,93576.69
2023-03-07T18:47:41.612Z,93614.09
2023-03-07T18:50:11.785Z,93605.88
2023-03-07T18:52:40.220Z,93607.50
2023-03-07T18:55:09.040Z,93564.75
2023-03-07T18:57:38.849Z,93578.00
2023-03-07T19:00:10.296Z,93599.19
2023-03-07T19:02:39.586Z,93584.44
2023-03-07T19:05:08.926Z,93597.66
2023-03-07T19:07:37.187Z,93616.25
2023-03-07T19:10:06.426Z,93553.47
2023-03-07T19:12:34.706Z,93627.25
2023-03-07T19:15:04.849Z,93637.28
2023-03-07T19:17:33.254Z,93633.53
2023-03-07T19:20:01.516Z,93637.06
2023-03-07T19:22:31.113Z,93648.22
2023-03-07T19:24:59.449Z,93643.44
2023-03-07T19:27:28.275Z,93610.03
2023-03-07T19:29:56.591Z,93644.00
2023-03-07T19:32:27.324Z,93648.75
2023-03-07T19:34:55.995Z,93648.50
2023-03-07T19:37:24.899Z,93652.16
2023-03-07T19:39:54.320Z,93596.22
2023-03-07T19:42:23.040Z,93660.66
2023-03-07T19:44:51.357Z,93659.59
2023-03-07T19:47:19.616Z,93654.25
2023-03-07T19:49:49.321Z,93655.66
2023-03-07T19:52:17.668Z,93641.88
2023-03-07T19:54:46.640Z,93665.50
2023-03-07T19:57:16.381Z,93663.63
2023-03-07T19:59:44.810Z,93658.59
2023-03-07T20:02:15.032Z,93656.50
2023-03-07T20:04:43.328Z,93663.34
2023-03-07T20:07:12.990Z,93652.16
2023-03-07T20:09:41.325Z,93666.56
2023-03-07T20:12:11.193Z,93667.59
2023-03-07T20:14:42.948Z,93665.78
2023-03-07T20:17:12.176Z,93673.97
2023-03-07T20:19:40.589Z,93672.69
2023-03-07T20:22:08.930Z,93653.81
2023-03-07T20:24:38.608Z,93698.69
2023-03-07T20:27:07.041Z,93715.75
2023-03-07T20:29:35.304Z,93729.28
2023-03-07T20:32:03.708Z,93737.56
2023-03-07T20:34:32.027Z,93737.56
2023-03-07T20:37:00.418Z,93742.91
2023-03-07T20:39:28.661Z,93736.78
2023-03-07T20:41:58.445Z,93751.38
2023-03-07T20:44:26.688Z,93732.53
2023-03-07T20:46:55.844Z,93763.06
2023-03-07T20:49:24.475Z,93758.28
2023-03-07T20:51:52.785Z,93759.06
2023-03-07T20:54:21.193Z,93761.97
2023-03-07T20:56:49.587Z,93748.69
2023-03-07T20:59:20.455Z,93773.38
2023-03-07T21:01:49.261Z,93769.91
2023-03-07T21:04:20.710Z,93778.44
2023-03-07T21:06:50.214Z,93727.41
2023-03-07T21:09:19.821Z,93784.00
2023-03-07T21:11:50.347Z,93781.59
2023-03-07T21:14:21.349Z,93782.41
2023-03-07T21:16:49.663Z,93788.53
2023-03-07T21:19:17.974Z,93795.97
2023-03-07T21:21:46.354Z,93790.09
2023-03-07T21:24:15.799Z,93794.88
2023-03-07T21:26:44.339Z,93808.72
2023-03-07T21:29:14.175Z,93802.03
2023-03-07T21:31:44.175Z,93821.41
2023-03-07T21:34:15.285Z,93817.16
2023-03-07T21:36:43.829Z,93810.75
2023-03-07T21:39:12.845Z,93803.88
2023-03-07T21:41:41.371Z,93809.72
2023-03-07T21:44:10.953Z,93798.06
2023-03-07T21:46:39.867Z,93807.63
2023-03-07T21:49:09.675Z,93822.78
2023-03-07T21:51:38.030Z,93811.34
2023-03-07T21:54:06.660Z,93819.31
2023-03-07T21:56:35.290Z,93813.22
2023-03-07T21:59:03.661Z,93814.50
2023-03-07T22:01:32.165Z,93813.22
2023-03-07T22:04:00.953Z,93823.53
2023-03-07T22:06:30.794Z,93840.75
2023-03-07T22:09:00.487Z,93846.84
2023-03-07T22:11:29.245Z,93841.03
2023-03-07T22:13:57.524Z,93844.78
2023-03-07T22:16:26.003Z,93857.53
2023-03-07T22:18:55.517Z,93855.38
2023-03-07T22:21:26.198Z,93844.50
2023-03-07T22:23:58.473Z,93841.56
2023-03-07T22:26:27.592Z,93842.66
2023-03-07T22:28:56.394Z,93831.75
2023-03-07T22:31:24.855Z,93854.88
2023-03-07T22:33:53.330Z,93847.97
2023-03-07T22:36:22.115Z,93859.66
2023-03-07T22:38:56.767Z,93854.88
2023-03-07T22:41:26.642Z,93854.63
2023-03-07T22:43:55.374Z,93847.72
2023-03-07T22:46:23.885Z,93808.63
2023-03-07T22:48:56.065Z,93855.44
2023-03-07T22:51:26.150Z,93848.19
2023-03-07T22:53:56.149Z,93808.63
2023-03-07T22:56:25.958Z,93856.94
2023-03-07T22:58:54.920Z,93866.00
2023-03-07T23:01:25.116Z,93862.81
2023-03-07T23:03:55.478Z,93858.03
2023-03-07T23:06:25.072Z,93864.97
2023-03-07T23:08:55.669Z,93849.50
2023-03-07T23:11:25.446Z,93852.22
2023-03-07T23:13:54.496Z,93873.47
2023-03-07T23:16:25.175Z,93873.47
2023-03-07T23:18:55.052Z,93871.09
2023-03-07T23:21:26.160Z,93873.50
2023-03-07T23:23:56.966Z,93869.75
2023-03-07T23:26:26.939Z,93863.41
2023-03-07T23:28:55.622Z,93871.84
2023-03-07T23:31:25.728Z,93852.91
2023-03-07T23:33:56.676Z,93880.88
2023-03-07T23:36:26.096Z,93879.28
2023-03-07T23:38:55.880Z,93863.34
2023-03-07T23:41:24.269Z,93879.81
2023-03-07T23:43:52.928Z,93883.00
2023-03-07T23:46:21.646Z,93868.66
2023-03-07T23:48:49.997Z,93875.59
2023-03-07T23:51:19.093Z,93866.53
2023-03-07T23:53:47.353Z,93871.06
2023-03-07T23:56:17.136Z,93881.41
2023-03-07T23:58:47.677Z,93835.69
